sensor_id;sensor_type;location;lat;lon;timestamp;temperature;humidity
47765;DHT22;33529;49.242;8.670;2023-02-12T00:00:43;5.80;99.90
47765;DHT22;33529;49.242;8.670;2023-02-12T00:03:10;5.80;99.90
47765;DHT22;33529;49.242;8.670;2023-02-12T00:05:38;5.70;99.90
47765;DHT22;33529;49.242;8.670;2023-02-12T00:08:06;5.60;99.90
47765;DHT22;33529;49.242;8.670;2023-02-12T00:10:33;5.70;99.90
47765;DHT22;33529;49.242;8.670;2023-02-12T00:13:00;5.60;99.90
47765;DHT22;33529;49.242;8.670;2023-02-12T00:15:27;5.60;99.90
47765;DHT22;33529;49.242;8.670;2023-02-12T00:17:54;5.60;99.90
47765;DHT22;33529;49.242;8.670;2023-02-12T00:20:21;5.60;99.90
47765;DHT22;33529;49.242;8.670;2023-02-12T00:22:48;5.60;99.90
47765;DHT22;33529;49.242;8.670;2023-02-12T00:25:14;5.60;99.90
47765;DHT22;33529;49.242;8.670;2023-02-12T00:27:42;5.60;99.90
47765;DHT22;33529;49.242;8.670;2023-02-12T00:30:09;5.60;99.90
47765;DHT22;33529;49.242;8.670;2023-02-12T00:32:36;5.60;99.90
47765;DHT22;33529;49.242;8.670;2023-02-12T00:35:04;5.60;99.90
47765;DHT22;33529;49.242;8.670;2023-02-12T00:37:30;5.60;99.90
47765;DHT22;33529;49.242;8.670;2023-02-12T00:39:57;5.60;99.90
47765;DHT22;33529;49.242;8.670;2023-02-12T00:42:24;5.60;99.90
47765;DHT22;33529;49.242;8.670;2023-02-12T00:44:51;5.60;99.90
47765;DHT22;33529;49.242;8.670;2023-02-12T00:47:18;5.70;99.90
47765;DHT22;33529;49.242;8.670;2023-02-12T00:49:45;5.60;99.90
47765;DHT22;33529;49.242;8.670;2023-02-12T00:52:11;5.60;99.90
47765;DHT22;33529;49.242;8.670;2023-02-12T00:54:38;5.50;99.90
47765;DHT22;33529;49.242;8.670;2023-02-12T00:57:05;5.50;99.90
47765;DHT22;33529;49.242;8.670;2023-02-12T00:59:32;5.50;99.90
47765;DHT22;33529;49.242;8.670;2023-02-12T01:02:02;5.50;99.90
47765;DHT22;33529;49.242;8.670;2023-02-12T01:04:28;5.50;99.90
47765;DHT22;33529;49.242;8.670;2023-02-12T01:06:55;5.50;99.90
47765;DHT22;33529;49.242;8.670;2023-02-12T01:09:22;5.50;99.90
47765;DHT22;33529;49.242;8.670;2023-02-12T01:11:49;5.50;99.90
47765;DHT22;33529;49.242;8.670;2023-02-12T01:14:16;5.30;99.90
47765;DHT22;33529;49.242;8.670;2023-02-12T01:16:44;5.20;99.90
47765;DHT22;33529;49.242;8.670;2023-02-12T01:19:11;5.20;99.90
47765;DHT22;33529;49.242;8.670;2023-02-12T01:21:39;5.20;99.90
47765;DHT22;33529;49.242;8.670;2023-02-12T01:24:06;5.20;99.90
47765;DHT22;33529;49.242;8.670;2023-02-12T01:26:33;5.30;99.90
47765;DHT22;33529;49.242;8.670;2023-02-12T01:29:02;5.30;99.90
47765;DHT22;33529;49.242;8.670;2023-02-12T01:31:34;5.30;99.90
47765;DHT22;33529;49.242;8.670;2023-02-12T01:34:01;5.20;99.90
47765;DHT22;33529;49.242;8.670;2023-02-12T01:36:29;5.20;99.90
47765;DHT22;33529;49.242;8.670;2023-02-12T01:38:56;5.20;99.90
47765;DHT22;33529;49.242;8.670;2023-02-12T01:41:27;5.30;99.90
47765;DHT22;33529;49.242;8.670;2023-02-12T01:44:22;5.30;99.90
47765;DHT22;33529;49.242;8.670;2023-02-12T01:46:55;5.30;99.90
47765;DHT22;33529;49.242;8.670;2023-02-12T01:51:57;5.30;99.90
47765;DHT22;33529;49.242;8.670;2023-02-12T01:54:25;5.40;99.90
47765;DHT22;33529;49.242;8.670;2023-02-12T01:56:52;5.40;99.90
47765;DHT22;33529;49.242;8.670;2023-02-12T01:59:21;5.40;99.90
47765;DHT22;33529;49.242;8.670;2023-02-12T02:01:47;5.30;99.90
47765;DHT22;33529;49.242;8.670;2023-02-12T02:04:19;5.20;99.90
47765;DHT22;33529;49.242;8.670;2023-02-12T02:09:21;5.10;99.90
47765;DHT22;33529;49.242;8.670;2023-02-12T02:11:48;5.10;99.90
47765;DHT22;33529;49.242;8.670;2023-02-12T02:14:34;5.20;99.90
47765;DHT22;33529;49.242;8.670;2023-02-12T02:28:49;5.20;99.90
47765;DHT22;33529;49.242;8.670;2023-02-12T02:31:42;5.30;99.90
47765;DHT22;33529;49.242;8.670;2023-02-12T02:42:18;5.30;99.90
47765;DHT22;33529;49.242;8.670;2023-02-12T02:44:53;5.30;99.90
47765;DHT22;33529;49.242;8.670;2023-02-12T02:47:30;5.30;99.90
47765;DHT22;33529;49.242;8.670;2023-02-12T02:50:02;5.30;99.90
47765;DHT22;33529;49.242;8.670;2023-02-12T02:52:37;5.30;99.90
47765;DHT22;33529;49.242;8.670;2023-02-12T02:55:07;5.30;99.90
47765;DHT22;33529;49.242;8.670;2023-02-12T02:57:53;5.30;99.90
47765;DHT22;33529;49.242;8.670;2023-02-12T03:00:27;5.30;99.90
47765;DHT22;33529;49.242;8.670;2023-02-12T03:03:01;5.40;99.90
47765;DHT22;33529;49.242;8.670;2023-02-12T03:05:38;5.40;99.90
47765;DHT22;33529;49.242;8.670;2023-02-12T03:08:10;5.30;99.90
47765;DHT22;33529;49.242;8.670;2023-02-12T03:10:42;5.30;99.90
47765;DHT22;33529;49.242;8.670;2023-02-12T03:13:15;5.40;99.90
47765;DHT22;33529;49.242;8.670;2023-02-12T03:16:05;5.40;99.90
47765;DHT22;33529;49.242;8.670;2023-02-12T03:18:51;5.40;99.90
47765;DHT22;33529;49.242;8.670;2023-02-12T03:21:30;5.30;99.90
47765;DHT22;33529;49.242;8.670;2023-02-12T03:24:28;5.30;99.90
47765;DHT22;33529;49.242;8.670;2023-02-12T03:26:58;5.30;99.90
47765;DHT22;33529;49.242;8.670;2023-02-12T03:29:29;5.30;99.90
47765;DHT22;33529;49.242;8.670;2023-02-12T03:32:28;5.30;99.90
47765;DHT22;33529;49.242;8.670;2023-02-12T03:35:07;5.30;99.90
47765;DHT22;33529;49.242;8.670;2023-02-12T03:38:02;5.30;99.90
47765;DHT22;33529;49.242;8.670;2023-02-12T03:40:39;5.30;99.90
47765;DHT22;33529;49.242;8.670;2023-02-12T03:46:35;5.20;99.90
47765;DHT22;33529;49.242;8.670;2023-02-12T03:49:26;5.30;99.90
47765;DHT22;33529;49.242;8.670;2023-02-12T03:51:55;5.40;99.90
47765;DHT22;33529;49.242;8.670;2023-02-12T03:54:23;5.40;99.90
47765;DHT22;33529;49.242;8.670;2023-02-12T03:57:14;5.50;99.90
47765;DHT22;33529;49.242;8.670;2023-02-12T03:59:43;5.40;99.90
47765;DHT22;33529;49.242;8.670;2023-02-12T04:02:11;5.40;99.90
47765;DHT22;33529;49.242;8.670;2023-02-12T04:04:38;5.30;99.90
47765;DHT22;33529;49.242;8.670;2023-02-12T04:07:05;5.30;99.90
47765;DHT22;33529;49.242;8.670;2023-02-12T04:09:32;5.30;99.90
47765;DHT22;33529;49.242;8.670;2023-02-12T04:25:52;5.20;99.90
47765;DHT22;33529;49.242;8.670;2023-02-12T04:36:53;5.40;99.90
47765;DHT22;33529;49.242;8.670;2023-02-12T04:39:26;5.40;99.90
47765;DHT22;33529;49.242;8.670;2023-02-12T04:41:53;5.30;99.90
47765;DHT22;33529;49.242;8.670;2023-02-12T04:44:25;5.30;99.90
47765;DHT22;33529;49.242;8.670;2023-02-12T04:46:53;5.30;99.90
47765;DHT22;33529;49.242;8.670;2023-02-12T04:49:21;5.40;99.90
47765;DHT22;33529;49.242;8.670;2023-02-12T04:51:49;5.40;99.90
47765;DHT22;33529;49.242;8.670;2023-02-12T04:54:17;5.50;99.90
47765;DHT22;33529;49.242;8.670;2023-02-12T04:56:44;5.50;99.90
47765;DHT22;33529;49.242;8.670;2023-02-12T04:59:12;5.50;99.90
47765;DHT22;33529;49.242;8.670;2023-02-12T05:01:39;5.50;99.90
47765;DHT22;33529;49.242;8.670;2023-02-12T05:04:07;5.50;99.90
47765;DHT22;33529;49.242;8.670;2023-02-12T05:06:37;5.50;99.90
47765;DHT22;33529;49.242;8.670;2023-02-12T05:09:05;5.50;99.90
47765;DHT22;33529;49.242;8.670;2023-02-12T05:11:33;5.50;99.90
47765;DHT22;33529;49.242;8.670;2023-02-12T05:14:00;5.40;99.90
47765;DHT22;33529;49.242;8.670;2023-02-12T05:16:26;5.40;99.90
47765;DHT22;33529;49.242;8.670;2023-02-12T05:18:53;5.40;99.90
47765;DHT22;33529;49.242;8.670;2023-02-12T05:21:20;5.40;99.90
47765;DHT22;33529;49.242;8.670;2023-02-12T05:23:48;5.30;99.90
47765;DHT22;33529;49.242;8.670;2023-02-12T05:26:17;5.30;99.90
47765;DHT22;33529;49.242;8.670;2023-02-12T05:28:45;5.30;99.90
47765;DHT22;33529;49.242;8.670;2023-02-12T05:31:17;5.30;99.90
47765;DHT22;33529;49.242;8.670;2023-02-12T05:33:47;5.20;99.90
47765;DHT22;33529;49.242;8.670;2023-02-12T05:36:21;5.20;99.90
47765;DHT22;33529;49.242;8.670;2023-02-12T05:38:50;5.20;99.90
47765;DHT22;33529;49.242;8.670;2023-02-12T05:41:20;5.20;99.90
47765;DHT22;33529;49.242;8.670;2023-02-12T05:43:48;5.20;99.90
47765;DHT22;33529;49.242;8.670;2023-02-12T05:46:17;5.20;99.90
47765;DHT22;33529;49.242;8.670;2023-02-12T05:48:45;5.20;99.90
47765;DHT22;33529;49.242;8.670;2023-02-12T05:51:15;5.10;99.90
47765;DHT22;33529;49.242;8.670;2023-02-12T05:53:42;5.10;99.90
47765;DHT22;33529;49.242;8.670;2023-02-12T05:56:18;5.20;99.90
47765;DHT22;33529;49.242;8.670;2023-02-12T05:58:50;5.10;99.90
47765;DHT22;33529;49.242;8.670;2023-02-12T06:01:20;5.10;99.90
47765;DHT22;33529;49.242;8.670;2023-02-12T06:03:47;5.20;99.90
47765;DHT22;33529;49.242;8.670;2023-02-12T06:06:15;5.20;99.90
47765;DHT22;33529;49.242;8.670;2023-02-12T06:08:42;5.20;99.90
47765;DHT22;33529;49.242;8.670;2023-02-12T06:11:12;5.20;99.90
47765;DHT22;33529;49.242;8.670;2023-02-12T06:13:40;5.10;99.90
47765;DHT22;33529;49.242;8.670;2023-02-12T06:18:44;5.10;99.90
47765;DHT22;33529;49.242;8.670;2023-02-12T06:21:11;5.20;99.90
47765;DHT22;33529;49.242;8.670;2023-02-12T06:23:38;5.20;99.90
47765;DHT22;33529;49.242;8.670;2023-02-12T06:26:05;5.30;99.90
47765;DHT22;33529;49.242;8.670;2023-02-12T06:28:32;5.30;99.90
47765;DHT22;33529;49.242;8.670;2023-02-12T06:30:59;5.30;99.90
47765;DHT22;33529;49.242;8.670;2023-02-12T06:33:26;5.30;99.90
47765;DHT22;33529;49.242;8.670;2023-02-12T06:35:53;5.20;99.90
47765;DHT22;33529;49.242;8.670;2023-02-12T06:38:20;5.30;99.90
47765;DHT22;33529;49.242;8.670;2023-02-12T06:40:47;5.30;99.90
47765;DHT22;33529;49.242;8.670;2023-02-12T06:43:14;5.30;99.90
47765;DHT22;33529;49.242;8.670;2023-02-12T06:45:41;5.20;99.90
47765;DHT22;33529;49.242;8.670;2023-02-12T06:48:08;5.30;99.90
47765;DHT22;33529;49.242;8.670;2023-02-12T06:50:35;5.20;99.90
47765;DHT22;33529;49.242;8.670;2023-02-12T06:53:02;5.20;99.90
47765;DHT22;33529;49.242;8.670;2023-02-12T06:55:29;5.20;99.90
47765;DHT22;33529;49.242;8.670;2023-02-12T06:57:56;5.20;99.90
47765;DHT22;33529;49.242;8.670;2023-02-12T07:00:23;5.20;99.90
47765;DHT22;33529;49.242;8.670;2023-02-12T07:02:54;5.10;99.90
47765;DHT22;33529;49.242;8.670;2023-02-12T07:05:22;5.10;99.90
47765;DHT22;33529;49.242;8.670;2023-02-12T07:07:49;5.20;99.90
47765;DHT22;33529;49.242;8.670;2023-02-12T07:10:17;5.20;99.90
47765;DHT22;33529;49.242;8.670;2023-02-12T07:12:44;5.30;99.90
47765;DHT22;33529;49.242;8.670;2023-02-12T07:15:13;5.30;99.90
47765;DHT22;33529;49.242;8.670;2023-02-12T07:17:40;5.30;99.90
47765;DHT22;33529;49.242;8.670;2023-02-12T07:20:07;5.30;99.90
47765;DHT22;33529;49.242;8.670;2023-02-12T07:22:35;5.40;99.90
47765;DHT22;33529;49.242;8.670;2023-02-12T07:25:02;5.40;99.90
47765;DHT22;33529;49.242;8.670;2023-02-12T07:27:29;5.50;99.90
47765;DHT22;33529;49.242;8.670;2023-02-12T07:29:56;5.50;99.90
47765;DHT22;33529;49.242;8.670;2023-02-12T07:32:23;5.50;99.90
47765;DHT22;33529;49.242;8.670;2023-02-12T07:34:49;5.50;99.90
47765;DHT22;33529;49.242;8.670;2023-02-12T07:37:16;5.60;99.90
47765;DHT22;33529;49.242;8.670;2023-02-12T07:39:48;5.70;99.90
47765;DHT22;33529;49.242;8.670;2023-02-12T07:42:15;5.80;99.90
47765;DHT22;33529;49.242;8.670;2023-02-12T07:44:47;5.70;99.90
47765;DHT22;33529;49.242;8.670;2023-02-12T07:47:15;5.80;99.90
47765;DHT22;33529;49.242;8.670;2023-02-12T07:49:42;5.90;99.90
47765;DHT22;33529;49.242;8.670;2023-02-12T07:52:09;5.90;99.90
47765;DHT22;33529;49.242;8.670;2023-02-12T07:54:39;5.90;99.90
47765;DHT22;33529;49.242;8.670;2023-02-12T07:57:05;6.00;99.90
47765;DHT22;33529;49.242;8.670;2023-02-12T07:59:33;6.00;99.90
47765;DHT22;33529;49.242;8.670;2023-02-12T08:01:59;6.10;99.90
47765;DHT22;33529;49.242;8.670;2023-02-12T08:04:26;6.10;99.90
47765;DHT22;33529;49.242;8.670;2023-02-12T08:06:54;6.20;99.90
47765;DHT22;33529;49.242;8.670;2023-02-12T08:09:27;6.20;99.90
47765;DHT22;33529;49.242;8.670;2023-02-12T08:11:54;6.20;99.90
47765;DHT22;33529;49.242;8.670;2023-02-12T08:14:21;6.20;99.90
47765;DHT22;33529;49.242;8.670;2023-02-12T08:16:49;6.30;99.90
47765;DHT22;33529;49.242;8.670;2023-02-12T08:19:17;6.30;99.90
47765;DHT22;33529;49.242;8.670;2023-02-12T08:21:53;6.30;99.90
47765;DHT22;33529;49.242;8.670;2023-02-12T08:24:20;6.20;99.90
47765;DHT22;33529;49.242;8.670;2023-02-12T08:26:48;6.30;99.90
47765;DHT22;33529;49.242;8.670;2023-02-12T08:29:18;6.30;99.90
47765;DHT22;33529;49.242;8.670;2023-02-12T08:31:47;6.30;99.90
47765;DHT22;33529;49.242;8.670;2023-02-12T08:34:23;6.30;99.90
47765;DHT22;33529;49.242;8.670;2023-02-12T08:36:52;6.30;99.90
47765;DHT22;33529;49.242;8.670;2023-02-12T08:39:24;6.40;99.90
47765;DHT22;33529;49.242;8.670;2023-02-12T08:41:54;6.40;99.90
47765;DHT22;33529;49.242;8.670;2023-02-12T08:44:22;6.40;99.90
47765;DHT22;33529;49.242;8.670;2023-02-12T08:46:50;6.50;99.90
47765;DHT22;33529;49.242;8.670;2023-02-12T08:49:22;6.50;99.90
47765;DHT22;33529;49.242;8.670;2023-02-12T08:51:52;6.60;99.90
47765;DHT22;33529;49.242;8.670;2023-02-12T08:54:25;6.60;99.90
47765;DHT22;33529;49.242;8.670;2023-02-12T08:56:56;6.70;99.90
47765;DHT22;33529;49.242;8.670;2023-02-12T08:59:23;6.70;99.90
47765;DHT22;33529;49.242;8.670;2023-02-12T09:01:51;6.80;99.90
47765;DHT22;33529;49.242;8.670;2023-02-12T09:04:24;6.70;99.90
47765;DHT22;33529;49.242;8.670;2023-02-12T09:06:51;6.80;99.90
47765;DHT22;33529;49.242;8.670;2023-02-12T09:09:19;6.70;99.90
47765;DHT22;33529;49.242;8.670;2023-02-12T09:11:46;6.80;99.90
47765;DHT22;33529;49.242;8.670;2023-02-12T09:14:14;6.80;99.90
47765;DHT22;33529;49.242;8.670;2023-02-12T09:16:42;6.80;99.90
47765;DHT22;33529;49.242;8.670;2023-02-12T09:19:11;6.80;99.90
47765;DHT22;33529;49.242;8.670;2023-02-12T09:21:39;6.80;99.90
47765;DHT22;33529;49.242;8.670;2023-02-12T09:24:06;6.80;99.90
47765;DHT22;33529;49.242;8.670;2023-02-12T09:26:33;6.90;99.90
47765;DHT22;33529;49.242;8.670;2023-02-12T09:29:02;6.90;99.90
47765;DHT22;33529;49.242;8.670;2023-02-12T09:31:30;7.00;99.90
47765;DHT22;33529;49.242;8.670;2023-02-12T09:34:00;7.00;99.90
47765;DHT22;33529;49.242;8.670;2023-02-12T09:36:28;7.20;99.90
47765;DHT22;33529;49.242;8.670;2023-02-12T09:38:55;7.30;99.90
47765;DHT22;33529;49.242;8.670;2023-02-12T09:41:50;7.20;99.90
47765;DHT22;33529;49.242;8.670;2023-02-12T09:44:35;7.30;99.90
47765;DHT22;33529;49.242;8.670;2023-02-12T09:52:45;7.50;99.90
47765;DHT22;33529;49.242;8.670;2023-02-12T09:55:16;7.60;99.90
47765;DHT22;33529;49.242;8.670;2023-02-12T09:57:44;7.50;99.90
47765;DHT22;33529;49.242;8.670;2023-02-12T10:00:18;7.60;99.90
47765;DHT22;33529;49.242;8.670;2023-02-12T10:02:49;7.70;99.90
47765;DHT22;33529;49.242;8.670;2023-02-12T10:05:22;7.80;99.90
47765;DHT22;33529;49.242;8.670;2023-02-12T10:10:49;7.90;99.90
47765;DHT22;33529;49.242;8.670;2023-02-12T10:19:02;7.90;99.90
47765;DHT22;33529;49.242;8.670;2023-02-12T10:21:53;7.90;99.90
47765;DHT22;33529;49.242;8.670;2023-02-12T10:27:02;7.80;99.90
47765;DHT22;33529;49.242;8.670;2023-02-12T10:29:36;7.90;99.90
47765;DHT22;33529;49.242;8.670;2023-02-12T10:32:11;8.00;99.90
47765;DHT22;33529;49.242;8.670;2023-02-12T10:34:40;8.20;99.90
47765;DHT22;33529;49.242;8.670;2023-02-12T10:37:34;8.20;99.90
47765;DHT22;33529;49.242;8.670;2023-02-12T10:42:44;8.40;99.90
47765;DHT22;33529;49.242;8.670;2023-02-12T10:45:15;8.60;99.90
47765;DHT22;33529;49.242;8.670;2023-02-12T10:47:44;8.40;99.90
47765;DHT22;33529;49.242;8.670;2023-02-12T10:50:37;8.50;99.90
47765;DHT22;33529;49.242;8.670;2023-02-12T10:53:05;8.40;99.90
47765;DHT22;33529;49.242;8.670;2023-02-12T10:55:35;8.60;99.90
47765;DHT22;33529;49.242;8.670;2023-02-12T10:58:20;8.40;99.90
47765;DHT22;33529;49.242;8.670;2023-02-12T11:00:56;8.40;99.90
47765;DHT22;33529;49.242;8.670;2023-02-12T11:03:29;8.60;99.90
47765;DHT22;33529;49.242;8.670;2023-02-12T11:06:15;8.90;99.90
47765;DHT22;33529;49.242;8.670;2023-02-12T11:08:42;9.00;99.90
47765;DHT22;33529;49.242;8.670;2023-02-12T11:11:11;9.10;99.90
47765;DHT22;33529;49.242;8.670;2023-02-12T11:13:43;9.10;99.90
47765;DHT22;33529;49.242;8.670;2023-02-12T11:16:12;9.10;99.90
47765;DHT22;33529;49.242;8.670;2023-02-12T11:18:39;9.20;99.90
47765;DHT22;33529;49.242;8.670;2023-02-12T11:21:06;9.30;99.90
47765;DHT22;33529;49.242;8.670;2023-02-12T11:23:37;9.30;99.90
47765;DHT22;33529;49.242;8.670;2023-02-12T11:26:08;9.50;99.90
47765;DHT22;33529;49.242;8.670;2023-02-12T11:28:56;9.70;99.90
47765;DHT22;33529;49.242;8.670;2023-02-12T11:31:30;9.80;99.90
47765;DHT22;33529;49.242;8.670;2023-02-12T11:36:32;9.90;99.90
47765;DHT22;33529;49.242;8.670;2023-02-12T11:39:01;10.10;99.90
47765;DHT22;33529;49.242;8.670;2023-02-12T11:41:33;10.00;99.90
47765;DHT22;33529;49.242;8.670;2023-02-12T11:44:09;10.00;99.90
47765;DHT22;33529;49.242;8.670;2023-02-12T11:46:38;10.10;99.90
47765;DHT22;33529;49.242;8.670;2023-02-12T11:49:06;10.10;99.90
47765;DHT22;33529;49.242;8.670;2023-02-12T11:51:35;10.10;99.90
47765;DHT22;33529;49.242;8.670;2023-02-12T11:54:04;10.10;99.90
47765;DHT22;33529;49.242;8.670;2023-02-12T11:56:44;10.20;99.90
47765;DHT22;33529;49.242;8.670;2023-02-12T11:59:39;10.30;99.90
47765;DHT22;33529;49.242;8.670;2023-02-12T12:02:25;10.30;99.90
47765;DHT22;33529;49.242;8.670;2023-02-12T12:05:11;10.30;99.90
47765;DHT22;33529;49.242;8.670;2023-02-12T12:07:43;10.50;99.90
47765;DHT22;33529;49.242;8.670;2023-02-12T12:10:20;10.50;99.90
47765;DHT22;33529;49.242;8.670;2023-02-12T12:12:54;10.50;99.90
47765;DHT22;33529;49.242;8.670;2023-02-12T12:15:27;10.40;99.90
47765;DHT22;33529;49.242;8.670;2023-02-12T12:24:01;10.30;99.90
47765;DHT22;33529;49.242;8.670;2023-02-12T12:26:31;10.20;99.90
47765;DHT22;33529;49.242;8.670;2023-02-12T12:29:20;10.40;99.90
47765;DHT22;33529;49.242;8.670;2023-02-12T12:31:51;10.50;99.90
47765;DHT22;33529;49.242;8.670;2023-02-12T12:34:24;10.60;99.90
47765;DHT22;33529;49.242;8.670;2023-02-12T12:37:31;10.50;99.90
47765;DHT22;33529;49.242;8.670;2023-02-12T12:40:16;10.60;99.90
47765;DHT22;33529;49.242;8.670;2023-02-12T12:43:03;10.70;99.90
47765;DHT22;33529;49.242;8.670;2023-02-12T12:46:14;10.60;99.90
47765;DHT22;33529;49.242;8.670;2023-02-12T12:49:05;10.50;99.90
47765;DHT22;33529;49.242;8.670;2023-02-12T12:51:44;10.50;99.90
47765;DHT22;33529;49.242;8.670;2023-02-12T12:57:21;10.60;99.90
47765;DHT22;33529;49.242;8.670;2023-02-12T13:05:09;10.60;99.90
47765;DHT22;33529;49.242;8.670;2023-02-12T13:10:54;10.50;99.90
47765;DHT22;33529;49.242;8.670;2023-02-12T13:13:34;10.50;99.90
47765;DHT22;33529;49.242;8.670;2023-02-12T13:16:32;10.50;99.90
47765;DHT22;33529;49.242;8.670;2023-02-12T13:19:02;10.50;99.90
47765;DHT22;33529;49.242;8.670;2023-02-12T13:21:41;10.50;99.90
47765;DHT22;33529;49.242;8.670;2023-02-12T13:27:05;10.40;99.90
47765;DHT22;33529;49.242;8.670;2023-02-12T13:29:52;10.40;99.90
47765;DHT22;33529;49.242;8.670;2023-02-12T13:32:28;10.40;99.90
47765;DHT22;33529;49.242;8.670;2023-02-12T13:34:56;10.30;99.90
47765;DHT22;33529;49.242;8.670;2023-02-12T13:37:36;10.20;99.90
47765;DHT22;33529;49.242;8.670;2023-02-12T13:40:07;10.10;99.90
47765;DHT22;33529;49.242;8.670;2023-02-12T13:42:42;10.00;99.90
47765;DHT22;33529;49.242;8.670;2023-02-12T13:45:25;9.90;99.90
47765;DHT22;33529;49.242;8.670;2023-02-12T13:50:55;9.80;99.90
47765;DHT22;33529;49.242;8.670;2023-02-12T13:56:37;9.70;99.90
47765;DHT22;33529;49.242;8.670;2023-02-12T14:02:00;9.60;99.90
47765;DHT22;33529;49.242;8.670;2023-02-12T14:04:51;9.60;99.90
47765;DHT22;33529;49.242;8.670;2023-02-12T14:07:21;9.50;99.90
47765;DHT22;33529;49.242;8.670;2023-02-12T14:14:51;9.50;99.90
47765;DHT22;33529;49.242;8.670;2023-02-12T14:34:37;9.50;99.90
47765;DHT22;33529;49.242;8.670;2023-02-12T14:36:39;9.60;99.90
47765;DHT22;33529;49.242;8.670;2023-02-12T14:41:52;9.60;99.90
47765;DHT22;33529;49.242;8.670;2023-02-12T14:46:56;9.60;99.90
47765;DHT22;33529;49.242;8.670;2023-02-12T14:54:50;9.60;99.90
47765;DHT22;33529;49.242;8.670;2023-02-12T14:57:38;9.60;99.90
47765;DHT22;33529;49.242;8.670;2023-02-12T15:03:15;9.60;99.90
47765;DHT22;33529;49.242;8.670;2023-02-12T15:08:53;9.60;99.90
47765;DHT22;33529;49.242;8.670;2023-02-12T15:11:38;9.60;99.90
47765;DHT22;33529;49.242;8.670;2023-02-12T15:16:59;9.60;99.90
47765;DHT22;33529;49.242;8.670;2023-02-12T15:22:28;9.60;99.90
47765;DHT22;33529;49.242;8.670;2023-02-12T15:25:25;9.60;99.90
47765;DHT22;33529;49.242;8.670;2023-02-12T15:31:01;9.50;99.90
47765;DHT22;33529;49.242;8.670;2023-02-12T15:33:31;9.50;99.90
47765;DHT22;33529;49.242;8.670;2023-02-12T15:35:59;9.50;99.90
47765;DHT22;33529;49.242;8.670;2023-02-12T15:38:34;9.40;99.90
47765;DHT22;33529;49.242;8.670;2023-02-12T15:41:03;9.40;99.90
47765;DHT22;33529;49.242;8.670;2023-02-12T15:43:33;9.50;99.90
47765;DHT22;33529;49.242;8.670;2023-02-12T15:46:04;9.50;99.90
47765;DHT22;33529;49.242;8.670;2023-02-12T15:48:35;9.50;99.90
47765;DHT22;33529;49.242;8.670;2023-02-12T15:51:13;9.40;99.90
47765;DHT22;33529;49.242;8.670;2023-02-12T15:53:42;9.40;99.90
47765;DHT22;33529;49.242;8.670;2023-02-12T15:56:12;9.40;99.90
47765;DHT22;33529;49.242;8.670;2023-02-12T16:01:19;9.40;99.90
47765;DHT22;33529;49.242;8.670;2023-02-12T16:03:51;9.30;99.90
47765;DHT22;33529;49.242;8.670;2023-02-12T16:06:20;9.30;99.90
47765;DHT22;33529;49.242;8.670;2023-02-12T16:08:49;9.20;99.90
47765;DHT22;33529;49.242;8.670;2023-02-12T16:11:20;9.30;99.90
47765;DHT22;33529;49.242;8.670;2023-02-12T16:16:42;9.10;99.90
47765;DHT22;33529;49.242;8.670;2023-02-12T16:19:20;9.10;99.90
47765;DHT22;33529;49.242;8.670;2023-02-12T16:24:35;9.00;99.90
47765;DHT22;33529;49.242;8.670;2023-02-12T16:27:18;9.00;99.90
47765;DHT22;33529;49.242;8.670;2023-02-12T16:29:49;8.90;99.90
47765;DHT22;33529;49.242;8.670;2023-02-12T16:32:36;8.90;99.90
47765;DHT22;33529;49.242;8.670;2023-02-12T16:50:45;8.40;99.90
47765;DHT22;33529;49.242;8.670;2023-02-12T16:55:49;8.40;99.90
47765;DHT22;33529;49.242;8.670;2023-02-12T16:58:16;8.30;99.90
47765;DHT22;33529;49.242;8.670;2023-02-12T17:00:43;8.30;99.90
47765;DHT22;33529;49.242;8.670;2023-02-12T17:03:12;8.30;99.90
47765;DHT22;33529;49.242;8.670;2023-02-12T17:05:39;8.20;99.90
47765;DHT22;33529;49.242;8.670;2023-02-12T17:08:20;8.10;99.90
47765;DHT22;33529;49.242;8.670;2023-02-12T17:10:48;8.10;99.90
47765;DHT22;33529;49.242;8.670;2023-02-12T17:13:16;8.00;99.90
47765;DHT22;33529;49.242;8.670;2023-02-12T17:15:51;8.00;99.90
47765;DHT22;33529;49.242;8.670;2023-02-12T17:18:20;8.00;99.90
47765;DHT22;33529;49.242;8.670;2023-02-12T17:20:55;8.10;99.90
47765;DHT22;33529;49.242;8.670;2023-02-12T17:23:23;8.10;99.90
47765;DHT22;33529;49.242;8.670;2023-02-12T17:25:50;8.00;99.90
47765;DHT22;33529;49.242;8.670;2023-02-12T17:28:17;7.90;99.90
47765;DHT22;33529;49.242;8.670;2023-02-12T17:30:45;7.90;99.90
47765;DHT22;33529;49.242;8.670;2023-02-12T17:33:12;8.00;99.90
47765;DHT22;33529;49.242;8.670;2023-02-12T17:35:39;7.90;99.90
47765;DHT22;33529;49.242;8.670;2023-02-12T17:38:06;7.80;99.90
47765;DHT22;33529;49.242;8.670;2023-02-12T17:40:37;7.90;99.90
47765;DHT22;33529;49.242;8.670;2023-02-12T17:43:05;7.80;99.90
47765;DHT22;33529;49.242;8.670;2023-02-12T17:45:32;7.80;99.90
47765;DHT22;33529;49.242;8.670;2023-02-12T17:47:59;7.70;99.90
47765;DHT22;33529;49.242;8.670;2023-02-12T17:50:26;7.80;99.90
47765;DHT22;33529;49.242;8.670;2023-02-12T17:52:53;7.70;99.90
47765;DHT22;33529;49.242;8.670;2023-02-12T17:55:20;7.70;99.90
47765;DHT22;33529;49.242;8.670;2023-02-12T17:57:51;7.60;99.90
47765;DHT22;33529;49.242;8.670;2023-02-12T18:00:18;7.60;99.90
47765;DHT22;33529;49.242;8.670;2023-02-12T18:02:46;7.60;99.90
47765;DHT22;33529;49.242;8.670;2023-02-12T18:05:13;7.50;99.90
47765;DHT22;33529;49.242;8.670;2023-02-12T18:07:40;7.50;99.90
47765;DHT22;33529;49.242;8.670;2023-02-12T18:10:08;7.60;99.90
47765;DHT22;33529;49.242;8.670;2023-02-12T18:12:37;7.60;99.90
47765;DHT22;33529;49.242;8.670;2023-02-12T18:15:06;7.60;99.90
47765;DHT22;33529;49.242;8.670;2023-02-12T18:17:33;7.70;99.90
47765;DHT22;33529;49.242;8.670;2023-02-12T18:20:00;7.70;99.90
47765;DHT22;33529;49.242;8.670;2023-02-12T18:22:27;7.70;99.90
47765;DHT22;33529;49.242;8.670;2023-02-12T18:24:54;7.70;99.90
47765;DHT22;33529;49.242;8.670;2023-02-12T18:27:23;7.60;99.90
47765;DHT22;33529;49.242;8.670;2023-02-12T18:29:50;7.50;99.90
47765;DHT22;33529;49.242;8.670;2023-02-12T18:32:16;7.50;99.90
47765;DHT22;33529;49.242;8.670;2023-02-12T18:34:43;7.50;99.90
47765;DHT22;33529;49.242;8.670;2023-02-12T18:37:11;7.50;99.90
47765;DHT22;33529;49.242;8.670;2023-02-12T18:39:38;7.50;99.90
47765;DHT22;33529;49.242;8.670;2023-02-12T18:42:06;7.40;99.90
47765;DHT22;33529;49.242;8.670;2023-02-12T18:44:33;7.40;99.90
47765;DHT22;33529;49.242;8.670;2023-02-12T18:47:00;7.30;99.90
47765;DHT22;33529;49.242;8.670;2023-02-12T18:49:27;7.30;99.90
47765;DHT22;33529;49.242;8.670;2023-02-12T18:51:54;7.20;99.90
47765;DHT22;33529;49.242;8.670;2023-02-12T18:54:21;7.20;99.90
47765;DHT22;33529;49.242;8.670;2023-02-12T18:56:50;7.20;99.90
47765;DHT22;33529;49.242;8.670;2023-02-12T18:59:18;7.10;99.90
47765;DHT22;33529;49.242;8.670;2023-02-12T19:01:46;7.10;99.90
47765;DHT22;33529;49.242;8.670;2023-02-12T19:04:14;7.10;99.90
47765;DHT22;33529;49.242;8.670;2023-02-12T19:06:47;7.00;99.90
47765;DHT22;33529;49.242;8.670;2023-02-12T19:09:15;7.00;99.90